Willis Wharf, VA

9:26 AM EDT on May 29, 2015 (GMT -0400)
Davis Wharf | | Change Station
CLOSE
Current Station
Personal Weather Station
Location: Belle Haven, VA
Elevation: 0 ft
Nearby Weather Stations

Elev 0 ft 37.55 °N, 75.88 °W | Updated 7 minutes ago

Mostly Cloudy
Mostly Cloudy
75.4 °F
Feels Like 77 °F
N
5.8
Wind Variable Wind from SW

Today
High -- | Low -- °F
--% Chance of Precip.
Yesterday
High -- | Low -- °F
Precip. -- in
5:45 AM 8:16 PM
Waxing Gibbous, 83% visible
Pressure 30.26 in
Visibility 10.0 miles
Clouds Scattered Clouds 3600 ft
Mostly Cloudy 5500 ft
Heat Index 77 °F
Dew Point 65 °F
Humidity 70%
Rainfall 0.00 in
Snow Depth Not available.
UV 3 out of 12
Pollen 6.60 out of 12
Air Quality Not available.
Flu Activity No Activity
METAR KMFV 291315Z AUTO 20004KT 10SM SCT036 BKN055 25/20 A3026 RMK AO2

More Conditions Fewer Conditions

Pressure 30.26 in
Visibility 10.0 miles
Clouds Scattered Clouds 3600 ft
Mostly Cloudy 5500 ft
Heat Index 77 °F
Dew Point 65 °F
Humidity 70%
Rainfall 0.00 in
Snow Depth Not available.
UV 3 out of 12
Pollen 6.60 out of 12
Air Quality Not available.
Flu Activity No Activity
METAR KMFV 291315Z AUTO 20004KT 10SM SCT036 BKN055 25/20 A3026 RMK AO2

More Conditions Fewer Conditions

10-Day Weather Forecast

Almanac

Astronomy

May. 29, 2015 Rise Set
Actual Time
Civil Twilight
Nautical Twilight
Astronomical Twilight
Moon
Length of Visible Light
Length of Day
Tomorrow will be .
, % of the Moon is Illuminated

Today's Extremes

State Highs State Lows

Community

WunderPhotos

Upload Photos

1,825,254 photos uploaded!

WunderBlogs® & News

Nearby

Air Quality

  Air Quality AQ Index Pollutant
Not available.

Snow Depth

Station Depth Elevation

Earthquake Activity

City Distance Mag. Time & Date
Minimum magnitude displayed is 2.5.

Coastal Water Temperatures

Place Temperature

Stations

Nearby Weather Stations

Station Location Temp. Windchill Dew Point Humidity Wind Precip. Elev Updated Type